sensor_id;sensor_type;location;lat;lon;timestamp;P1;durP1;ratioP1;P2;durP2;ratioP2
40653;SDS011;26344;45.532;9.232;2023-02-18T00:00:14;15.98;;;10.38;;
40653;SDS011;26344;45.532;9.232;2023-02-18T00:02:41;17.77;;;10.70;;
40653;SDS011;26344;45.532;9.232;2023-02-18T00:05:07;17.95;;;10.77;;
40653;SDS011;26344;45.532;9.232;2023-02-18T00:07:34;20.05;;;10.77;;
40653;SDS011;26344;45.532;9.232;2023-02-18T00:10:00;15.40;;;10.82;;
40653;SDS011;26344;45.532;9.232;2023-02-18T00:12:26;15.20;;;10.70;;
40653;SDS011;26344;45.532;9.232;2023-02-18T00:14:52;15.32;;;10.52;;
40653;SDS011;26344;45.532;9.232;2023-02-18T00:17:18;14.45;;;10.25;;
40653;SDS011;26344;45.532;9.232;2023-02-18T00:19:44;16.00;;;10.98;;
40653;SDS011;26344;45.532;9.232;2023-02-18T00:22:10;14.80;;;10.32;;
40653;SDS011;26344;45.532;9.232;2023-02-18T00:24:37;17.77;;;11.32;;
40653;SDS011;26344;45.532;9.232;2023-02-18T00:27:03;17.80;;;10.93;;
40653;SDS011;26344;45.532;9.232;2023-02-18T00:29:29;13.55;;;10.18;;
40653;SDS011;26344;45.532;9.232;2023-02-18T00:31:55;15.18;;;10.57;;
40653;SDS011;26344;45.532;9.232;2023-02-18T00:34:21;16.33;;;9.90;;
40653;SDS011;26344;45.532;9.232;2023-02-18T00:36:46;19.00;;;10.73;;
40653;SDS011;26344;45.532;9.232;2023-02-18T00:39:12;13.85;;;9.82;;
40653;SDS011;26344;45.532;9.232;2023-02-18T00:41:39;13.40;;;9.80;;
40653;SDS011;26344;45.532;9.232;2023-02-18T00:44:05;13.70;;;9.40;;
40653;SDS011;26344;45.532;9.232;2023-02-18T00:46:31;12.32;;;9.15;;
40653;SDS011;26344;45.532;9.232;2023-02-18T00:48:58;12.68;;;9.00;;
40653;SDS011;26344;45.532;9.232;2023-02-18T00:51:24;12.98;;;9.52;;
40653;SDS011;26344;45.532;9.232;2023-02-18T00:53:50;17.25;;;9.30;;
40653;SDS011;26344;45.532;9.232;2023-02-18T00:56:17;12.93;;;9.13;;
40653;SDS011;26344;45.532;9.232;2023-02-18T00:58:43;12.57;;;8.93;;
40653;SDS011;26344;45.532;9.232;2023-02-18T01:01:09;19.33;;;9.13;;
40653;SDS011;26344;45.532;9.232;2023-02-18T01:03:36;17.00;;;9.30;;
40653;SDS011;26344;45.532;9.232;2023-02-18T01:06:02;13.10;;;8.80;;
40653;SDS011;26344;45.532;9.232;2023-02-18T01:08:28;12.57;;;8.63;;
40653;SDS011;26344;45.532;9.232;2023-02-18T01:10:55;14.40;;;8.70;;
40653;SDS011;26344;45.532;9.232;2023-02-18T01:13:22;13.85;;;9.13;;
40653;SDS011;26344;45.532;9.232;2023-02-18T01:15:48;14.75;;;9.25;;
40653;SDS011;26344;45.532;9.232;2023-02-18T01:18:14;11.77;;;8.90;;
40653;SDS011;26344;45.532;9.232;2023-02-18T01:20:41;15.82;;;9.00;;
40653;SDS011;26344;45.532;9.232;2023-02-18T01:23:08;14.85;;;8.55;;
40653;SDS011;26344;45.532;9.232;2023-02-18T01:25:34;12.50;;;9.30;;
40653;SDS011;26344;45.532;9.232;2023-02-18T01:28:00;12.82;;;9.15;;
40653;SDS011;26344;45.532;9.232;2023-02-18T01:30:26;12.45;;;8.48;;
40653;SDS011;26344;45.532;9.232;2023-02-18T01:32:52;15.13;;;9.27;;
40653;SDS011;26344;45.532;9.232;2023-02-18T01:35:18;15.82;;;9.38;;
40653;SDS011;26344;45.532;9.232;2023-02-18T01:37:45;12.82;;;9.05;;
40653;SDS011;26344;45.532;9.232;2023-02-18T01:40:12;12.82;;;9.55;;
40653;SDS011;26344;45.532;9.232;2023-02-18T01:42:39;15.43;;;9.63;;
40653;SDS011;26344;45.532;9.232;2023-02-18T01:47:49;14.35;;;9.18;;
40653;SDS011;26344;45.532;9.232;2023-02-18T01:50:15;12.40;;;8.95;;
40653;SDS011;26344;45.532;9.232;2023-02-18T01:52:41;13.55;;;9.50;;
40653;SDS011;26344;45.532;9.232;2023-02-18T01:55:07;13.30;;;9.45;;
40653;SDS011;26344;45.532;9.232;2023-02-18T01:57:34;11.73;;;8.65;;
40653;SDS011;26344;45.532;9.232;2023-02-18T02:00:05;11.30;;;8.70;;
40653;SDS011;26344;45.532;9.232;2023-02-18T02:02:33;13.57;;;9.30;;
40653;SDS011;26344;45.532;9.232;2023-02-18T02:05:00;14.05;;;8.57;;
40653;SDS011;26344;45.532;9.232;2023-02-18T02:07:26;14.23;;;9.90;;
40653;SDS011;26344;45.532;9.232;2023-02-18T02:09:53;15.73;;;10.10;;
40653;SDS011;26344;45.532;9.232;2023-02-18T02:23:29;13.20;;;8.77;;
40653;SDS011;26344;45.532;9.232;2023-02-18T02:26:04;13.60;;;9.40;;
40653;SDS011;26344;45.532;9.232;2023-02-18T02:28:58;15.40;;;9.45;;
40653;SDS011;26344;45.532;9.232;2023-02-18T02:36:22;16.52;;;9.63;;
40653;SDS011;26344;45.532;9.232;2023-02-18T02:38:52;15.32;;;9.35;;
40653;SDS011;26344;45.532;9.232;2023-02-18T02:43:55;14.07;;;8.83;;
40653;SDS011;26344;45.532;9.232;2023-02-18T02:46:30;13.07;;;8.63;;
40653;SDS011;26344;45.532;9.232;2023-02-18T02:51:37;16.20;;;9.77;;
40653;SDS011;26344;45.532;9.232;2023-02-18T02:54:14;17.88;;;10.18;;
40653;SDS011;26344;45.532;9.232;2023-02-18T02:56:40;15.00;;;9.68;;
40653;SDS011;26344;45.532;9.232;2023-02-18T02:59:06;19.10;;;9.05;;
40653;SDS011;26344;45.532;9.232;2023-02-18T03:01:44;24.23;;;10.35;;
40653;SDS011;26344;45.532;9.232;2023-02-18T03:07:13;12.75;;;9.20;;
40653;SDS011;26344;45.532;9.232;2023-02-18T03:12:02;13.15;;;9.85;;
40653;SDS011;26344;45.532;9.232;2023-02-18T03:14:36;16.25;;;10.13;;
40653;SDS011;26344;45.532;9.232;2023-02-18T03:17:10;13.98;;;9.48;;
40653;SDS011;26344;45.532;9.232;2023-02-18T03:19:39;13.32;;;9.30;;
40653;SDS011;26344;45.532;9.232;2023-02-18T03:22:12;16.33;;;9.73;;
40653;SDS011;26344;45.532;9.232;2023-02-18T03:24:41;15.80;;;9.73;;
40653;SDS011;26344;45.532;9.232;2023-02-18T03:27:13;14.23;;;9.75;;
40653;SDS011;26344;45.532;9.232;2023-02-18T03:29:44;14.50;;;9.88;;
40653;SDS011;26344;45.532;9.232;2023-02-18T03:32:12;18.83;;;10.25;;
40653;SDS011;26344;45.532;9.232;2023-02-18T03:34:41;14.20;;;10.32;;
40653;SDS011;26344;45.532;9.232;2023-02-18T03:37:08;14.70;;;9.95;;
40653;SDS011;26344;45.532;9.232;2023-02-18T03:39:34;13.90;;;9.32;;
40653;SDS011;26344;45.532;9.232;2023-02-18T03:42:01;13.15;;;9.25;;
40653;SDS011;26344;45.532;9.232;2023-02-18T03:44:28;14.82;;;9.18;;
40653;SDS011;26344;45.532;9.232;2023-02-18T03:46:55;15.25;;;9.98;;
40653;SDS011;26344;45.532;9.232;2023-02-18T03:49:21;15.63;;;10.45;;
40653;SDS011;26344;45.532;9.232;2023-02-18T03:51:47;15.07;;;10.25;;
40653;SDS011;26344;45.532;9.232;2023-02-18T03:54:13;14.52;;;9.65;;
40653;SDS011;26344;45.532;9.232;2023-02-18T03:56:39;19.33;;;11.05;;
40653;SDS011;26344;45.532;9.232;2023-02-18T03:59:05;16.15;;;10.90;;
40653;SDS011;26344;45.532;9.232;2023-02-18T04:01:31;16.70;;;10.68;;
40653;SDS011;26344;45.532;9.232;2023-02-18T04:03:57;17.00;;;10.52;;
40653;SDS011;26344;45.532;9.232;2023-02-18T04:06:23;14.00;;;10.82;;
40653;SDS011;26344;45.532;9.232;2023-02-18T04:08:49;16.88;;;11.75;;
40653;SDS011;26344;45.532;9.232;2023-02-18T04:11:15;17.90;;;11.10;;
40653;SDS011;26344;45.532;9.232;2023-02-18T04:13:42;14.40;;;11.23;;
40653;SDS011;26344;45.532;9.232;2023-02-18T04:16:08;18.50;;;10.45;;
40653;SDS011;26344;45.532;9.232;2023-02-18T04:18:34;16.90;;;10.60;;
40653;SDS011;26344;45.532;9.232;2023-02-18T04:21:00;16.15;;;12.18;;
40653;SDS011;26344;45.532;9.232;2023-02-18T04:23:26;18.98;;;11.95;;
40653;SDS011;26344;45.532;9.232;2023-02-18T04:25:51;19.95;;;12.15;;
40653;SDS011;26344;45.532;9.232;2023-02-18T04:28:17;20.30;;;13.18;;
40653;SDS011;26344;45.532;9.232;2023-02-18T04:30:43;19.33;;;12.38;;
40653;SDS011;26344;45.532;9.232;2023-02-18T04:33:09;21.20;;;13.20;;
40653;SDS011;26344;45.532;9.232;2023-02-18T04:35:36;27.33;;;14.18;;
40653;SDS011;26344;45.532;9.232;2023-02-18T04:38:04;23.05;;;13.48;;
40653;SDS011;26344;45.532;9.232;2023-02-18T04:40:30;19.80;;;12.98;;
40653;SDS011;26344;45.532;9.232;2023-02-18T04:42:56;25.15;;;13.82;;
40653;SDS011;26344;45.532;9.232;2023-02-18T04:45:23;20.30;;;13.77;;
40653;SDS011;26344;45.532;9.232;2023-02-18T04:47:49;20.92;;;13.77;;
40653;SDS011;26344;45.532;9.232;2023-02-18T04:50:15;21.90;;;13.43;;
40653;SDS011;26344;45.532;9.232;2023-02-18T04:52:41;20.17;;;14.32;;
40653;SDS011;26344;45.532;9.232;2023-02-18T04:55:07;22.45;;;14.00;;
40653;SDS011;26344;45.532;9.232;2023-02-18T04:57:33;19.60;;;12.75;;
40653;SDS011;26344;45.532;9.232;2023-02-18T04:59:59;19.20;;;13.65;;
40653;SDS011;26344;45.532;9.232;2023-02-18T05:02:25;20.40;;;14.20;;
40653;SDS011;26344;45.532;9.232;2023-02-18T05:04:51;20.20;;;13.85;;
40653;SDS011;26344;45.532;9.232;2023-02-18T05:07:17;20.13;;;13.60;;
40653;SDS011;26344;45.532;9.232;2023-02-18T05:09:43;22.27;;;14.43;;
40653;SDS011;26344;45.532;9.232;2023-02-18T05:12:09;24.70;;;13.43;;
40653;SDS011;26344;45.532;9.232;2023-02-18T05:14:35;22.25;;;14.07;;
40653;SDS011;26344;45.532;9.232;2023-02-18T05:17:01;22.80;;;14.18;;
40653;SDS011;26344;45.532;9.232;2023-02-18T05:19:27;22.30;;;15.32;;
40653;SDS011;26344;45.532;9.232;2023-02-18T05:21:53;23.17;;;14.60;;
40653;SDS011;26344;45.532;9.232;2023-02-18T05:24:19;23.55;;;15.07;;
40653;SDS011;26344;45.532;9.232;2023-02-18T05:26:45;24.33;;;15.18;;
40653;SDS011;26344;45.532;9.232;2023-02-18T05:29:11;24.30;;;15.32;;
40653;SDS011;26344;45.532;9.232;2023-02-18T05:31:37;23.63;;;15.68;;
40653;SDS011;26344;45.532;9.232;2023-02-18T05:34:03;25.92;;;16.10;;
40653;SDS011;26344;45.532;9.232;2023-02-18T05:36:29;25.25;;;15.63;;
40653;SDS011;26344;45.532;9.232;2023-02-18T05:38:54;25.48;;;14.80;;
40653;SDS011;26344;45.532;9.232;2023-02-18T05:41:20;22.17;;;15.30;;
40653;SDS011;26344;45.532;9.232;2023-02-18T05:43:46;22.77;;;15.25;;
40653;SDS011;26344;45.532;9.232;2023-02-18T05:46:31;22.17;;;15.80;;
40653;SDS011;26344;45.532;9.232;2023-02-18T05:48:57;23.52;;;14.43;;
40653;SDS011;26344;45.532;9.232;2023-02-18T05:51:23;28.20;;;15.43;;
40653;SDS011;26344;45.532;9.232;2023-02-18T05:53:49;21.98;;;16.08;;
40653;SDS011;26344;45.532;9.232;2023-02-18T05:56:15;22.83;;;13.95;;
40653;SDS011;26344;45.532;9.232;2023-02-18T05:58:41;22.60;;;13.82;;
40653;SDS011;26344;45.532;9.232;2023-02-18T06:01:07;20.40;;;14.13;;
40653;SDS011;26344;45.532;9.232;2023-02-18T06:03:33;19.17;;;13.93;;
40653;SDS011;26344;45.532;9.232;2023-02-18T06:06:00;21.42;;;14.40;;
40653;SDS011;26344;45.532;9.232;2023-02-18T06:08:26;19.63;;;13.80;;
40653;SDS011;26344;45.532;9.232;2023-02-18T06:10:52;19.33;;;13.48;;
40653;SDS011;26344;45.532;9.232;2023-02-18T06:13:19;19.77;;;14.25;;
40653;SDS011;26344;45.532;9.232;2023-02-18T06:15:45;21.65;;;14.13;;
40653;SDS011;26344;45.532;9.232;2023-02-18T06:18:11;19.77;;;13.45;;
40653;SDS011;26344;45.532;9.232;2023-02-18T06:20:38;20.98;;;14.25;;
40653;SDS011;26344;45.532;9.232;2023-02-18T06:23:04;21.30;;;13.13;;
40653;SDS011;26344;45.532;9.232;2023-02-18T06:25:30;18.67;;;13.85;;
40653;SDS011;26344;45.532;9.232;2023-02-18T06:27:56;19.70;;;13.88;;
40653;SDS011;26344;45.532;9.232;2023-02-18T06:30:22;19.35;;;13.90;;
40653;SDS011;26344;45.532;9.232;2023-02-18T06:32:48;22.85;;;14.02;;
40653;SDS011;26344;45.532;9.232;2023-02-18T06:35:14;19.73;;;14.02;;
40653;SDS011;26344;45.532;9.232;2023-02-18T06:37:40;17.75;;;13.73;;
40653;SDS011;26344;45.532;9.232;2023-02-18T06:40:06;21.17;;;14.85;;
40653;SDS011;26344;45.532;9.232;2023-02-18T06:42:32;21.83;;;13.70;;
40653;SDS011;26344;45.532;9.232;2023-02-18T06:44:58;22.55;;;13.60;;
40653;SDS011;26344;45.532;9.232;2023-02-18T06:47:24;18.88;;;14.27;;
40653;SDS011;26344;45.532;9.232;2023-02-18T06:49:50;20.75;;;14.18;;
40653;SDS011;26344;45.532;9.232;2023-02-18T06:52:16;24.50;;;14.48;;
40653;SDS011;26344;45.532;9.232;2023-02-18T06:54:42;20.35;;;13.65;;
40653;SDS011;26344;45.532;9.232;2023-02-18T06:57:08;21.38;;;13.65;;
40653;SDS011;26344;45.532;9.232;2023-02-18T06:59:34;19.45;;;13.60;;
40653;SDS011;26344;45.532;9.232;2023-02-18T07:02:00;21.02;;;13.40;;
40653;SDS011;26344;45.532;9.232;2023-02-18T07:04:26;21.90;;;13.80;;
40653;SDS011;26344;45.532;9.232;2023-02-18T07:06:52;24.95;;;13.65;;
40653;SDS011;26344;45.532;9.232;2023-02-18T07:09:18;21.98;;;14.25;;
40653;SDS011;26344;45.532;9.232;2023-02-18T07:11:44;20.80;;;13.73;;
40653;SDS011;26344;45.532;9.232;2023-02-18T07:14:10;23.00;;;13.85;;
40653;SDS011;26344;45.532;9.232;2023-02-18T07:16:36;19.80;;;14.02;;
40653;SDS011;26344;45.532;9.232;2023-02-18T07:19:02;21.38;;;13.55;;
40653;SDS011;26344;45.532;9.232;2023-02-18T07:21:28;21.20;;;14.32;;
40653;SDS011;26344;45.532;9.232;2023-02-18T07:23:54;22.25;;;13.52;;
40653;SDS011;26344;45.532;9.232;2023-02-18T07:26:20;21.52;;;13.90;;
40653;SDS011;26344;45.532;9.232;2023-02-18T07:28:46;23.80;;;14.88;;
40653;SDS011;26344;45.532;9.232;2023-02-18T07:31:12;21.05;;;14.68;;
40653;SDS011;26344;45.532;9.232;2023-02-18T07:33:38;19.52;;;13.63;;
40653;SDS011;26344;45.532;9.232;2023-02-18T07:36:04;22.30;;;14.68;;
40653;SDS011;26344;45.532;9.232;2023-02-18T07:38:30;21.23;;;15.43;;
40653;SDS011;26344;45.532;9.232;2023-02-18T07:40:56;23.95;;;15.20;;
40653;SDS011;26344;45.532;9.232;2023-02-18T07:43:23;22.67;;;15.55;;
40653;SDS011;26344;45.532;9.232;2023-02-18T07:45:49;24.50;;;15.63;;
40653;SDS011;26344;45.532;9.232;2023-02-18T07:48:15;23.10;;;15.63;;
40653;SDS011;26344;45.532;9.232;2023-02-18T07:50:42;22.67;;;16.15;;
40653;SDS011;26344;45.532;9.232;2023-02-18T07:53:09;28.30;;;17.05;;
40653;SDS011;26344;45.532;9.232;2023-02-18T07:55:35;23.52;;;16.60;;
40653;SDS011;26344;45.532;9.232;2023-02-18T07:58:14;24.88;;;17.40;;
40653;SDS011;26344;45.532;9.232;2023-02-18T08:00:40;27.27;;;17.90;;
40653;SDS011;26344;45.532;9.232;2023-02-18T08:03:06;29.90;;;18.83;;
40653;SDS011;26344;45.532;9.232;2023-02-18T08:05:32;26.90;;;18.30;;
40653;SDS011;26344;45.532;9.232;2023-02-18T08:07:58;36.92;;;18.92;;
40653;SDS011;26344;45.532;9.232;2023-02-18T08:10:24;29.95;;;19.75;;
40653;SDS011;26344;45.532;9.232;2023-02-18T08:12:50;29.30;;;19.73;;
40653;SDS011;26344;45.532;9.232;2023-02-18T08:15:16;30.88;;;20.45;;
40653;SDS011;26344;45.532;9.232;2023-02-18T08:17:42;31.30;;;20.33;;
40653;SDS011;26344;45.532;9.232;2023-02-18T08:20:08;29.67;;;20.55;;
40653;SDS011;26344;45.532;9.232;2023-02-18T08:22:34;30.42;;;20.48;;
40653;SDS011;26344;45.532;9.232;2023-02-18T08:25:00;31.48;;;21.05;;
40653;SDS011;26344;45.532;9.232;2023-02-18T08:27:26;33.45;;;22.00;;
40653;SDS011;26344;45.532;9.232;2023-02-18T08:29:52;34.53;;;22.23;;
40653;SDS011;26344;45.532;9.232;2023-02-18T08:32:19;28.83;;;20.58;;
40653;SDS011;26344;45.532;9.232;2023-02-18T08:34:45;29.92;;;22.05;;
40653;SDS011;26344;45.532;9.232;2023-02-18T08:37:11;28.20;;;20.60;;
40653;SDS011;26344;45.532;9.232;2023-02-18T08:39:37;32.60;;;20.23;;
40653;SDS011;26344;45.532;9.232;2023-02-18T08:42:04;27.65;;;20.73;;
40653;SDS011;26344;45.532;9.232;2023-02-18T08:44:30;28.80;;;21.35;;
40653;SDS011;26344;45.532;9.232;2023-02-18T08:46:56;27.80;;;20.08;;
40653;SDS011;26344;45.532;9.232;2023-02-18T08:49:22;30.65;;;20.80;;
40653;SDS011;26344;45.532;9.232;2023-02-18T08:51:48;31.65;;;21.23;;
40653;SDS011;26344;45.532;9.232;2023-02-18T08:54:15;31.17;;;21.13;;
40653;SDS011;26344;45.532;9.232;2023-02-18T08:56:44;31.33;;;20.80;;
40653;SDS011;26344;45.532;9.232;2023-02-18T08:59:10;30.23;;;20.80;;
40653;SDS011;26344;45.532;9.232;2023-02-18T09:01:36;31.65;;;21.75;;
40653;SDS011;26344;45.532;9.232;2023-02-18T09:04:02;28.92;;;21.02;;
40653;SDS011;26344;45.532;9.232;2023-02-18T09:06:28;26.13;;;20.98;;
40653;SDS011;26344;45.532;9.232;2023-02-18T09:08:54;28.75;;;21.15;;
40653;SDS011;26344;45.532;9.232;2023-02-18T09:11:20;31.27;;;21.77;;
40653;SDS011;26344;45.532;9.232;2023-02-18T09:13:46;30.25;;;22.23;;
40653;SDS011;26344;45.532;9.232;2023-02-18T09:16:15;36.35;;;22.92;;
40653;SDS011;26344;45.532;9.232;2023-02-18T09:18:42;34.28;;;22.58;;
40653;SDS011;26344;45.532;9.232;2023-02-18T09:21:12;32.55;;;22.08;;
40653;SDS011;26344;45.532;9.232;2023-02-18T09:23:51;34.67;;;22.75;;
40653;SDS011;26344;45.532;9.232;2023-02-18T09:26:18;34.60;;;22.15;;
40653;SDS011;26344;45.532;9.232;2023-02-18T09:28:49;30.63;;;21.25;;
40653;SDS011;26344;45.532;9.232;2023-02-18T09:31:19;33.35;;;21.75;;
40653;SDS011;26344;45.532;9.232;2023-02-18T09:39:25;27.50;;;20.08;;
40653;SDS011;26344;45.532;9.232;2023-02-18T09:42:00;27.95;;;20.13;;
40653;SDS011;26344;45.532;9.232;2023-02-18T09:45:00;31.05;;;19.13;;
40653;SDS011;26344;45.532;9.232;2023-02-18T09:54:03;27.13;;;16.27;;
40653;SDS011;26344;45.532;9.232;2023-02-18T09:56:44;24.52;;;15.50;;
40653;SDS011;26344;45.532;9.232;2023-02-18T09:59:18;21.60;;;14.75;;
40653;SDS011;26344;45.532;9.232;2023-02-18T10:01:45;21.15;;;15.45;;
40653;SDS011;26344;45.532;9.232;2023-02-18T10:04:28;20.10;;;14.75;;
40653;SDS011;26344;45.532;9.232;2023-02-18T10:07:01;19.80;;;13.82;;
40653;SDS011;26344;45.532;9.232;2023-02-18T10:09:36;18.20;;;13.05;;
40653;SDS011;26344;45.532;9.232;2023-02-18T10:12:24;20.13;;;13.38;;
40653;SDS011;26344;45.532;9.232;2023-02-18T10:14:52;22.15;;;14.07;;
40653;SDS011;26344;45.532;9.232;2023-02-18T10:20:24;19.73;;;12.02;;
40653;SDS011;26344;45.532;9.232;2023-02-18T10:22:52;18.85;;;12.70;;
40653;SDS011;26344;45.532;9.232;2023-02-18T10:25:20;19.88;;;12.05;;
40653;SDS011;26344;45.532;9.232;2023-02-18T10:27:50;17.25;;;12.48;;
40653;SDS011;26344;45.532;9.232;2023-02-18T10:30:34;18.95;;;12.35;;
40653;SDS011;26344;45.532;9.232;2023-02-18T10:35:55;17.15;;;12.30;;
40653;SDS011;26344;45.532;9.232;2023-02-18T10:41:08;16.90;;;11.55;;
40653;SDS011;26344;45.532;9.232;2023-02-18T10:44:00;17.27;;;11.98;;
40653;SDS011;26344;45.532;9.232;2023-02-18T10:52:12;16.33;;;10.80;;
40653;SDS011;26344;45.532;9.232;2023-02-18T10:54:50;16.80;;;11.95;;
40653;SDS011;26344;45.532;9.232;2023-02-18T10:57:17;16.30;;;10.32;;
40653;SDS011;26344;45.532;9.232;2023-02-18T10:59:45;13.52;;;9.52;;
40653;SDS011;26344;45.532;9.232;2023-02-18T11:02:20;13.45;;;9.20;;
40653;SDS011;26344;45.532;9.232;2023-02-18T11:04:46;13.18;;;9.07;;
40653;SDS011;26344;45.532;9.232;2023-02-18T11:07:13;10.43;;;7.88;;
40653;SDS011;26344;45.532;9.232;2023-02-18T11:09:49;11.73;;;8.55;;
40653;SDS011;26344;45.532;9.232;2023-02-18T11:12:19;16.40;;;8.40;;
40653;SDS011;26344;45.532;9.232;2023-02-18T11:14:48;13.15;;;8.32;;
40653;SDS011;26344;45.532;9.232;2023-02-18T11:17:25;11.43;;;8.27;;
40653;SDS011;26344;45.532;9.232;2023-02-18T11:19:52;11.23;;;8.50;;
40653;SDS011;26344;45.532;9.232;2023-02-18T11:22:33;14.73;;;8.20;;
40653;SDS011;26344;45.532;9.232;2023-02-18T11:25:17;13.80;;;8.48;;
40653;SDS011;26344;45.532;9.232;2023-02-18T11:27:47;15.07;;;8.45;;
40653;SDS011;26344;45.532;9.232;2023-02-18T11:32:59;13.82;;;8.93;;
40653;SDS011;26344;45.532;9.232;2023-02-18T11:35:27;10.95;;;7.60;;
40653;SDS011;26344;45.532;9.232;2023-02-18T11:37:55;13.20;;;7.57;;
40653;SDS011;26344;45.532;9.232;2023-02-18T11:40:24;13.25;;;8.55;;
40653;SDS011;26344;45.532;9.232;2023-02-18T11:42:52;11.32;;;7.63;;
40653;SDS011;26344;45.532;9.232;2023-02-18T11:45:36;13.55;;;8.75;;
40653;SDS011;26344;45.532;9.232;2023-02-18T11:48:16;13.05;;;7.88;;
40653;SDS011;26344;45.532;9.232;2023-02-18T11:50:42;12.02;;;8.45;;
40653;SDS011;26344;45.532;9.232;2023-02-18T11:53:29;11.93;;;8.63;;
40653;SDS011;26344;45.532;9.232;2023-02-18T11:55:57;12.38;;;7.35;;
40653;SDS011;26344;45.532;9.232;2023-02-18T11:58:24;14.27;;;8.10;;
40653;SDS011;26344;45.532;9.232;2023-02-18T12:00:53;14.98;;;9.50;;
40653;SDS011;26344;45.532;9.232;2023-02-18T12:03:30;14.50;;;9.65;;
40653;SDS011;26344;45.532;9.232;2023-02-18T12:06:00;11.57;;;8.97;;
40653;SDS011;26344;45.532;9.232;2023-02-18T12:08:27;12.52;;;8.70;;
40653;SDS011;26344;45.532;9.232;2023-02-18T12:10:58;12.02;;;9.75;;
40653;SDS011;26344;45.532;9.232;2023-02-18T12:16:04;16.08;;;8.93;;
40653;SDS011;26344;45.532;9.232;2023-02-18T12:24:09;14.15;;;8.52;;
40653;SDS011;26344;45.532;9.232;2023-02-18T12:26:48;13.73;;;9.50;;
40653;SDS011;26344;45.532;9.232;2023-02-18T12:29:39;13.40;;;8.15;;
40653;SDS011;26344;45.532;9.232;2023-02-18T12:37:48;9.13;;;7.25;;
40653;SDS011;26344;45.532;9.232;2023-02-18T12:42:56;8.55;;;6.90;;
40653;SDS011;26344;45.532;9.232;2023-02-18T13:00:55;15.90;;;7.93;;
40653;SDS011;26344;45.532;9.232;2023-02-18T13:03:31;10.80;;;7.03;;
40653;SDS011;26344;45.532;9.232;2023-02-18T13:16:40;9.63;;;6.05;;
40653;SDS011;26344;45.532;9.232;2023-02-18T13:22:13;9.45;;;5.22;;
40653;SDS011;26344;45.532;9.232;2023-02-18T13:24:44;9.02;;;5.45;;
40653;SDS011;26344;45.532;9.232;2023-02-18T13:29:52;7.60;;;5.50;;
40653;SDS011;26344;45.532;9.232;2023-02-18T13:32:38;7.68;;;5.40;;
40653;SDS011;26344;45.532;9.232;2023-02-18T13:35:15;8.23;;;5.50;;
40653;SDS011;26344;45.532;9.232;2023-02-18T13:40:21;8.38;;;5.78;;
40653;SDS011;26344;45.532;9.232;2023-02-18T13:42:53;8.57;;;6.00;;
40653;SDS011;26344;45.532;9.232;2023-02-18T13:47:45;9.02;;;6.43;;
40653;SDS011;26344;45.532;9.232;2023-02-18T13:57:58;9.10;;;6.38;;
40653;SDS011;26344;45.532;9.232;2023-02-18T14:00:25;9.40;;;6.30;;
40653;SDS011;26344;45.532;9.232;2023-02-18T14:03:00;12.00;;;6.53;;
40653;SDS011;26344;45.532;9.232;2023-02-18T14:05:44;10.90;;;6.20;;
40653;SDS011;26344;45.532;9.232;2023-02-18T14:08:11;10.23;;;6.32;;
40653;SDS011;26344;45.532;9.232;2023-02-18T14:10:38;10.27;;;6.40;;
40653;SDS011;26344;45.532;9.232;2023-02-18T14:15:57;8.73;;;6.75;;
40653;SDS011;26344;45.532;9.232;2023-02-18T14:26:06;12.15;;;6.82;;
40653;SDS011;26344;45.532;9.232;2023-02-18T14:31:05;8.65;;;6.95;;
40653;SDS011;26344;45.532;9.232;2023-02-18T14:33:33;11.45;;;7.30;;
40653;SDS011;26344;45.532;9.232;2023-02-18T14:39:07;10.15;;;7.22;;
40653;SDS011;26344;45.532;9.232;2023-02-18T14:41:46;12.27;;;7.53;;
40653;SDS011;26344;45.532;9.232;2023-02-18T14:46:58;12.05;;;7.53;;
40653;SDS011;26344;45.532;9.232;2023-02-18T14:49:40;9.35;;;6.68;;
40653;SDS011;26344;45.532;9.232;2023-02-18T14:52:10;10.23;;;7.32;;
40653;SDS011;26344;45.532;9.232;2023-02-18T14:54:37;12.07;;;7.28;;
40653;SDS011;26344;45.532;9.232;2023-02-18T14:57:05;11.15;;;7.75;;
40653;SDS011;26344;45.532;9.232;2023-02-18T14:59:34;11.13;;;7.18;;
40653;SDS011;26344;45.532;9.232;2023-02-18T15:02:01;13.40;;;7.22;;
40653;SDS011;26344;45.532;9.232;2023-02-18T15:04:27;10.77;;;6.70;;
40653;SDS011;26344;45.532;9.232;2023-02-18T15:06:57;11.32;;;6.47;;
40653;SDS011;26344;45.532;9.232;2023-02-18T15:09:27;10.57;;;5.85;;
40653;SDS011;26344;45.532;9.232;2023-02-18T15:14:24;8.70;;;5.13;;
40653;SDS011;26344;45.532;9.232;2023-02-18T15:16:50;9.13;;;5.10;;
40653;SDS011;26344;45.532;9.232;2023-02-18T15:19:20;7.80;;;5.35;;
40653;SDS011;26344;45.532;9.232;2023-02-18T15:21:48;7.60;;;5.35;;
40653;SDS011;26344;45.532;9.232;2023-02-18T15:26:50;10.77;;;6.03;;
40653;SDS011;26344;45.532;9.232;2023-02-18T15:29:21;7.10;;;5.50;;
40653;SDS011;26344;45.532;9.232;2023-02-18T15:31:47;7.30;;;5.00;;
40653;SDS011;26344;45.532;9.232;2023-02-18T15:36:49;9.70;;;5.00;;
40653;SDS011;26344;45.532;9.232;2023-02-18T15:39:15;7.20;;;4.55;;
40653;SDS011;26344;45.532;9.232;2023-02-18T15:41:41;8.73;;;5.25;;
40653;SDS011;26344;45.532;9.232;2023-02-18T15:44:07;8.63;;;5.70;;
40653;SDS011;26344;45.532;9.232;2023-02-18T15:46:34;8.65;;;6.30;;
40653;SDS011;26344;45.532;9.232;2023-02-18T15:49:00;8.60;;;6.00;;
40653;SDS011;26344;45.532;9.232;2023-02-18T15:51:29;9.48;;;5.85;;
40653;SDS011;26344;45.532;9.232;2023-02-18T15:53:58;6.90;;;5.47;;
40653;SDS011;26344;45.532;9.232;2023-02-18T15:56:29;7.78;;;5.70;;
40653;SDS011;26344;45.532;9.232;2023-02-18T15:59:06;9.77;;;5.75;;
40653;SDS011;26344;45.532;9.232;2023-02-18T16:01:33;10.00;;;7.45;;
40653;SDS011;26344;45.532;9.232;2023-02-18T16:03:59;10.93;;;6.97;;
40653;SDS011;26344;45.532;9.232;2023-02-18T16:06:27;9.20;;;6.03;;
40653;SDS011;26344;45.532;9.232;2023-02-18T16:11:26;7.65;;;5.63;;
40653;SDS011;26344;45.532;9.232;2023-02-18T16:13:54;10.18;;;5.53;;
40653;SDS011;26344;45.532;9.232;2023-02-18T16:16:24;12.15;;;4.95;;
40653;SDS011;26344;45.532;9.232;2023-02-18T16:18:55;7.72;;;5.15;;
40653;SDS011;26344;45.532;9.232;2023-02-18T16:21:28;8.10;;;5.40;;
40653;SDS011;26344;45.532;9.232;2023-02-18T16:23:59;7.30;;;4.70;;
40653;SDS011;26344;45.532;9.232;2023-02-18T16:26:27;7.18;;;4.75;;
40653;SDS011;26344;45.532;9.232;2023-02-18T16:28:53;6.15;;;4.38;;
40653;SDS011;26344;45.532;9.232;2023-02-18T16:31:20;7.10;;;4.05;;
40653;SDS011;26344;45.532;9.232;2023-02-18T16:33:47;5.85;;;3.70;;
40653;SDS011;26344;45.532;9.232;2023-02-18T16:36:13;7.95;;;3.95;;
40653;SDS011;26344;45.532;9.232;2023-02-18T16:38:43;7.25;;;4.18;;
40653;SDS011;26344;45.532;9.232;2023-02-18T16:41:11;8.30;;;3.75;;
40653;SDS011;26344;45.532;9.232;2023-02-18T16:43:37;4.72;;;3.42;;
40653;SDS011;26344;45.532;9.232;2023-02-18T16:46:07;6.05;;;4.03;;
40653;SDS011;26344;45.532;9.232;2023-02-18T16:48:36;4.03;;;3.50;;
40653;SDS011;26344;45.532;9.232;2023-02-18T16:51:08;5.85;;;3.92;;
40653;SDS011;26344;45.532;9.232;2023-02-18T16:53:36;5.43;;;3.85;;
40653;SDS011;26344;45.532;9.232;2023-02-18T16:56:02;8.48;;;3.63;;
40653;SDS011;26344;45.532;9.232;2023-02-18T16:58:28;5.55;;;3.45;;
40653;SDS011;26344;45.532;9.232;2023-02-18T17:00:54;5.93;;;3.40;;
40653;SDS011;26344;45.532;9.232;2023-02-18T17:03:20;4.85;;;3.33;;
40653;SDS011;26344;45.532;9.232;2023-02-18T17:05:46;5.22;;;3.25;;